createdAt,value
2016-03-02T14:36:33.653Z,4464
2016-03-02T14:38:04.562Z,3920
2016-03-02T14:38:33.487Z,4080
2016-03-02T14:39:33.396Z,4136
2016-03-02T14:40:33.243Z,4176
2016-03-02T14:41:33.495Z,4792
2016-03-02T14:42:33.310Z,4364
2016-03-02T14:43:33.532Z,4148
2016-03-02T14:44:33.378Z,4232
2016-03-02T14:45:33.366Z,4364
2016-03-02T14:46:46.352Z,4292
2016-03-02T14:47:52.948Z,4164
2016-03-02T14:48:33.435Z,4104
2016-03-02T14:49:59.150Z,4068
2016-03-02T14:50:33.497Z,4072
2016-03-02T14:51:59.155Z,4064
2016-03-02T14:52:46.268Z,4052
2016-03-02T14:54:30.446Z,4096
2016-03-02T14:54:49.524Z,4156
2016-03-02T14:56:14.451Z,4156
2016-03-02T14:56:43.263Z,4168
2016-03-02T14:57:43.203Z,4224
2016-03-02T14:58:43.160Z,4272
2016-03-02T14:59:43.223Z,4260
2016-03-02T15:00:43.289Z,4208
2016-03-02T15:01:43.260Z,4160
2016-03-02T15:02:43.248Z,4128
2016-03-02T15:03:56.360Z,4024
2016-03-02T15:04:49.503Z,3944
2016-03-02T15:06:02.514Z,3840
2016-03-02T15:06:56.062Z,3808
2016-03-02T15:08:14.803Z,3788
2016-03-02T15:08:43.631Z,3772
2016-03-02T15:09:43.478Z,3760
2016-03-02T15:10:43.667Z,3708
2016-03-02T15:11:43.405Z,3492
2016-03-02T15:12:43.486Z,3284
2016-03-02T15:13:49.989Z,3420
2016-03-02T15:14:44.039Z,3380
2016-03-02T15:15:56.259Z,3408
2016-03-02T15:16:56.339Z,3444
2016-03-02T15:17:57.156Z,3412
2016-03-02T15:19:09.270Z,3352
2016-03-02T15:19:59.505Z,3352
2016-03-02T15:20:43.632Z,3372
2016-03-02T15:22:09.372Z,3308
2016-03-02T15:22:56.435Z,3592
2016-03-02T15:24:09.565Z,3680
2016-03-02T15:26:12.477Z,3832
2016-03-02T15:27:56.385Z,4396
2016-03-02T15:28:56.654Z,5116
2016-03-02T15:30:03.313Z,5444
2016-03-02T15:30:56.690Z,4980
2016-03-02T15:32:09.274Z,4612
2016-03-02T15:33:09.212Z,4552
2016-03-02T15:34:22.248Z,3876
2016-03-02T15:35:09.498Z,3644
2016-03-02T15:36:22.504Z,3944
2016-03-02T15:37:25.444Z,4492
2016-03-02T15:38:31.931Z,4768
2016-03-02T15:39:41.527Z,4200
2016-03-02T15:41:12.861Z,3824
2016-03-02T15:42:22.707Z,4060
2016-03-02T15:45:20.184Z,4376
2016-03-02T15:45:54.559Z,4196
2016-03-02T15:47:55.173Z,4772
2016-03-02T15:48:54.848Z,4628
2016-03-02T15:49:54.820Z,3828
2016-03-02T15:51:07.354Z,3620
2016-03-02T15:51:54.731Z,3360
2016-03-02T15:52:54.953Z,3356
2016-03-02T15:53:54.706Z,3628
2016-03-02T15:54:54.833Z,3284
2016-03-02T15:55:54.695Z,2608
2016-03-02T15:57:07.480Z,2344
2016-03-02T15:57:54.795Z,2308
2016-03-02T15:59:51.691Z,2312
2016-03-02T16:00:26.803Z,2308
2016-03-02T16:01:04.694Z,2324
2016-03-02T16:02:04.633Z,2284
2016-03-02T16:03:04.558Z,2096
2016-03-02T16:04:04.796Z,2036
2016-03-02T16:05:06.016Z,1956
2016-03-02T16:06:10.894Z,1784
2016-03-02T16:07:04.757Z,1620
2016-03-02T16:08:04.946Z,1512
2016-03-02T16:09:04.684Z,1480
2016-03-02T16:10:04.827Z,1468
2016-03-02T16:11:04.579Z,1448
2016-03-02T16:12:04.551Z,1444
2016-03-02T16:13:04.538Z,1388
2016-03-02T16:14:04.713Z,1764
2016-03-02T16:15:04.809Z,2252
2016-03-02T16:16:04.640Z,2512
2016-03-02T16:17:04.612Z,2552
2016-03-02T16:18:07.676Z,2492
2016-03-02T16:19:04.678Z,2344
2016-03-02T16:20:04.823Z,2220
2016-03-02T16:21:04.623Z,2156
2016-03-02T16:22:05.109Z,1964
2016-03-02T16:23:11.268Z,1772
2016-03-02T16:24:04.802Z,1768
2016-03-02T16:25:04.867Z,1848
2016-03-02T16:26:17.760Z,1664
2016-03-02T16:27:17.825Z,1580
2016-03-02T16:28:04.766Z,1596
2016-03-02T16:29:05.316Z,1508
2016-03-02T16:30:05.318Z,1416
2016-03-02T16:31:04.993Z,1408
2016-03-02T16:32:04.839Z,1396
2016-03-02T16:33:04.919Z,1316
2016-03-02T16:34:05.204Z,1300
2016-03-02T16:35:04.925Z,1248
2016-03-02T16:36:05.382Z,1168
2016-03-02T16:37:05.572Z,1132
2016-03-02T16:38:05.012Z,1136
2016-03-02T16:39:17.749Z,1120
2016-03-02T16:40:05.345Z,1100
2016-03-02T16:41:18.020Z,980
2016-03-02T16:42:05.382Z,896
2016-03-02T16:43:05.056Z,816
2016-03-02T16:44:05.199Z,756
2016-03-02T16:45:05.281Z,724
2016-03-02T16:46:05.127Z,660
2016-03-02T16:47:05.598Z,592
2016-03-02T16:48:05.382Z,548
2016-03-02T16:49:04.979Z,516
2016-03-02T16:50:05.215Z,488
2016-03-02T16:51:05.578Z,468
2016-03-02T16:52:11.425Z,448
2016-03-02T16:53:05.770Z,420
2016-03-02T16:54:05.211Z,392
2016-03-02T16:55:05.245Z,360
2016-03-02T16:56:05.232Z,320
2016-03-02T16:57:05.970Z,296
2016-03-02T16:58:05.503Z,272
2016-03-02T16:59:05.350Z,252
2016-03-02T17:00:05.447Z,232
2016-03-02T17:01:05.949Z,216
2016-03-02T17:02:05.857Z,200
2016-03-02T17:03:05.407Z,188
2016-03-02T17:04:05.378Z,176
2016-03-02T17:05:05.428Z,164
2016-03-02T17:06:05.430Z,152
2016-03-02T17:07:05.449Z,136
2016-03-02T17:08:05.702Z,128
2016-03-02T17:09:05.470Z,116
2016-03-02T17:10:05.677Z,100
2016-03-02T17:11:18.242Z,88
2016-03-02T17:12:05.618Z,76
2016-03-02T17:13:24.731Z,68
2016-03-02T17:14:12.046Z,64
2016-03-02T17:16:02.583Z,56
2016-03-02T17:16:15.240Z,52
2016-03-02T17:18:12.276Z,52
2016-03-02T17:18:24.995Z,48
2016-03-02T17:20:22.109Z,36
2016-03-02T17:20:34.628Z,40
2016-03-02T17:21:34.818Z,32
2016-03-02T17:22:34.884Z,32
2016-03-02T17:23:34.604Z,28
2016-03-02T17:24:35.514Z,24
2016-03-02T17:25:34.626Z,24
2016-03-02T17:26:34.675Z,20
2016-03-02T17:27:34.912Z,20
2016-03-02T17:28:34.696Z,16
2016-03-02T17:29:34.887Z,16
2016-03-02T17:30:34.717Z,12
2016-03-02T17:31:36.283Z,16
2016-03-02T17:32:34.801Z,12
2016-03-02T17:33:47.834Z,16
2016-03-02T17:34:41.134Z,12
2016-03-02T17:35:34.934Z,12
2016-03-02T17:36:35.452Z,12
2016-03-02T17:37:34.858Z,8
2016-03-02T17:38:47.566Z,12
2016-03-02T17:39:48.007Z,12
2016-03-02T17:40:34.882Z,12
2016-03-02T17:41:54.371Z,12
2016-03-02T17:42:34.965Z,12
2016-03-02T17:43:34.937Z,12
2016-03-02T17:44:34.963Z,12
2016-03-02T17:45:35.204Z,12
2016-03-02T17:46:40.485Z,8
2016-03-02T17:47:35.188Z,8
2016-03-02T17:48:35.226Z,8
2016-03-02T17:49:34.990Z,8
2016-03-02T17:50:35.082Z,12
2016-03-02T17:51:35.004Z,8
2016-03-02T17:52:48.048Z,8
2016-03-02T17:53:47.783Z,8
2016-03-02T17:55:00.737Z,8
2016-03-02T17:55:35.019Z,8
2016-03-02T17:57:06.334Z,8
2016-03-02T17:57:35.256Z,8
2016-03-02T17:58:35.069Z,8
2016-03-02T17:59:35.212Z,8
2016-03-02T18:00:35.106Z,8
2016-03-02T18:01:35.280Z,8
2016-03-02T18:02:35.125Z,8
2016-03-02T18:03:35.143Z,8
2016-03-02T18:04:35.176Z,8
2016-03-02T18:05:35.195Z,8
2016-03-02T18:06:35.337Z,8
2016-03-02T18:07:35.199Z,8
2016-03-02T18:08:35.280Z,12
2016-03-02T18:09:48.266Z,8
2016-03-02T18:10:35.254Z,8
2016-03-02T18:12:00.994Z,8
2016-03-02T18:12:35.353Z,8
2016-03-02T18:13:35.700Z,8
2016-03-02T18:14:35.655Z,8
2016-03-02T18:15:35.627Z,8
2016-03-02T18:16:35.426Z,8
2016-03-02T18:17:35.445Z,8
2016-03-02T18:18:35.369Z,8
2016-03-02T18:19:35.387Z,8
2016-03-02T18:20:35.468Z,8
2016-03-02T18:21:35.456Z,8
2016-03-02T18:22:35.427Z,8
2016-03-02T18:23:35.461Z,8
2016-03-02T18:24:35.478Z,8
2016-03-02T18:25:35.481Z,8
2016-03-02T18:26:35.500Z,8
2016-03-02T18:27:35.581Z,8
2016-03-02T18:28:35.600Z,8
2016-03-02T18:29:35.774Z,8
2016-03-02T18:30:35.589Z,8
2016-03-02T18:31:41.889Z,8
2016-03-02T18:32:35.672Z,8
2016-03-02T18:33:54.818Z,8
2016-03-02T18:34:35.661Z,8
2016-03-02T18:36:01.339Z,8
2016-03-02T18:36:35.652Z,8
2016-03-02T18:38:07.189Z,0
2016-03-02T18:38:42.423Z,0
2016-03-02T18:39:35.707Z,0
2016-03-02T18:40:35.757Z,0
2016-03-02T18:41:35.712Z,0
2016-03-02T18:42:35.871Z,0
2016-03-02T18:43:48.983Z,0
2016-03-02T18:44:35.908Z,0
2016-03-02T18:45:35.646Z,0
2016-03-02T18:46:35.976Z,0
2016-03-02T18:47:35.807Z,0
2016-03-02T18:48:35.824Z,0
2016-03-02T18:49:35.749Z,0
2016-03-02T18:50:48.658Z,0
2016-03-02T18:51:35.926Z,0
2016-03-02T18:52:55.150Z,0
2016-03-02T18:53:36.416Z,0
2016-03-02T18:54:35.919Z,0
2016-03-02T18:55:36.156Z,0
2016-03-02T18:56:35.987Z,0
2016-03-02T18:57:36.192Z,0
2016-03-02T18:58:48.836Z,0
2016-03-02T18:59:36.103Z,0
2016-03-02T19:00:55.484Z,0
2016-03-02T19:01:36.141Z,0
2016-03-02T19:02:36.081Z,0
2016-03-02T19:03:36.350Z,0
2016-03-02T19:04:48.821Z,0
2016-03-02T19:05:36.808Z,0
2016-03-02T19:07:02.136Z,0
2016-03-02T19:07:46.152Z,0
2016-03-02T19:09:05.861Z,0
2016-03-02T19:09:59.176Z,0
2016-03-02T19:11:17.288Z,0
2016-03-02T19:11:55.650Z,0
2016-03-02T19:13:26.981Z,0
2016-03-02T19:13:55.921Z,0
2016-03-02T19:14:55.846Z,0
2016-03-02T19:15:55.145Z,0
2016-03-02T19:16:55.882Z,0
2016-03-02T19:18:02.088Z,0
2016-03-02T19:18:56.294Z,0
2016-03-02T19:19:56.124Z,0
2016-03-02T19:21:15.299Z,12
2016-03-02T19:21:57.365Z,12
2016-03-02T19:24:31.635Z,12
2016-03-02T19:25:06.373Z,12
2016-03-02T19:26:06.048Z,12
2016-03-02T19:27:06.206Z,12
2016-03-02T19:28:06.396Z,12
2016-03-02T19:29:06.008Z,12
2016-03-02T19:30:06.168Z,12
2016-03-02T19:31:05.951Z,12
2016-03-02T19:32:06.110Z,12
2016-03-02T19:33:06.362Z,12
2016-03-02T19:34:06.037Z,12
2016-03-02T19:35:06.181Z,12
2016-03-02T19:36:06.058Z,12
2016-03-02T19:37:06.186Z,12
2016-03-02T19:38:06.158Z,12
2016-03-02T19:39:06.254Z,12
2016-03-02T19:40:06.475Z,12
2016-03-02T19:41:06.275Z,12
2016-03-02T19:42:06.278Z,12
2016-03-02T19:43:06.264Z,12
2016-03-02T19:44:06.642Z,12
2016-03-02T19:45:06.724Z,12
2016-03-02T19:46:06.602Z,12
2016-03-02T19:47:18.947Z,12
2016-03-02T19:48:19.106Z,12
2016-03-02T19:50:16.252Z,12
2016-03-02T19:51:16.318Z,12
2016-03-02T19:52:16.305Z,12
2016-03-02T19:53:16.261Z,12
2016-03-02T19:54:16.107Z,12
2016-03-02T19:55:16.438Z,12
2016-03-02T19:56:16.987Z,12
2016-03-02T19:57:16.474Z,12
2016-03-02T19:58:17.148Z,12
2016-03-02T19:59:16.512Z,12
2016-03-02T20:00:16.623Z,12
2016-03-02T20:01:16.594Z,12
2016-03-02T20:02:16.769Z,12
2016-03-02T20:03:17.147Z,12
2016-03-02T20:04:16.353Z,12
2016-03-02T20:05:16.528Z,12
2016-03-02T20:06:16.842Z,12
2016-03-02T20:07:16.736Z,12
2016-03-02T20:08:16.645Z,12
2016-03-02T20:09:16.663Z,12
2016-03-02T20:10:16.619Z,12
2016-03-02T20:11:16.590Z,12
2016-03-02T20:12:16.702Z,12
2016-03-02T20:13:16.705Z,12
2016-03-02T20:14:16.926Z,12
2016-03-02T20:15:16.992Z,12
2016-03-02T20:16:16.900Z,12
2016-03-02T20:17:16.824Z,12
2016-03-02T20:18:23.109Z,12
2016-03-02T20:19:16.815Z,12
2016-03-02T20:20:16.958Z,12
2016-03-02T20:21:16.727Z,12
2016-03-02T20:22:17.182Z,12
2016-03-02T20:23:16.732Z,12
2016-03-02T20:25:20.424Z,0
2016-03-02T20:27:17.399Z,0
2016-03-02T20:29:05.654Z,0
2016-03-02T20:29:40.357Z,0
2016-03-02T20:31:11.268Z,0
2016-03-02T20:31:49.440Z,0
2016-03-02T20:32:40.132Z,0
2016-03-02T20:35:15.811Z,0
2016-03-02T20:36:09.751Z,0
2016-03-02T20:38:31.459Z,0
2016-03-02T20:39:05.884Z,0
2016-03-02T20:41:08.358Z,0
2016-03-02T20:41:41.014Z,0
2016-03-02T20:42:21.908Z,0
2016-03-02T20:44:18.569Z,0
2016-03-02T20:44:57.166Z,0
2016-03-02T20:45:31.494Z,0
2016-03-02T20:47:33.797Z,0
2016-03-02T20:48:12.549Z,0
2016-03-02T20:48:47.689Z,0
2016-03-02T20:50:49.227Z,0
2016-03-02T20:51:27.729Z,0
2016-03-02T20:52:02.185Z,0
2016-03-02T20:53:59.080Z,0
2016-03-02T20:54:12.080Z,0
2016-03-02T20:56:14.446Z,0
2016-03-02T20:56:27.180Z,0
2016-03-02T20:57:27.198Z,0
2016-03-02T20:58:27.373Z,0
2016-03-02T20:59:39.907Z,0
2016-03-02T21:00:27.144Z,0
2016-03-02T21:01:27.240Z,0
2016-03-02T21:02:27.196Z,0
2016-03-02T21:03:27.198Z,0
2016-03-02T21:04:27.482Z,0
2016-03-02T21:05:27.251Z,0
2016-03-02T21:06:40.144Z,0
2016-03-02T21:07:28.662Z,0
2016-03-02T21:08:46.338Z,0
2016-03-02T21:09:30.340Z,0
2016-03-02T21:10:52.984Z,0
2016-03-02T21:13:01.757Z,0
2016-03-02T21:13:49.711Z,0
2016-03-02T21:15:27.419Z,0
2016-03-02T21:17:53.189Z,0
2016-03-02T21:20:21.651Z,0
2016-03-02T21:20:55.917Z,0
2016-03-02T21:21:55.903Z,0
2016-03-02T21:23:08.783Z,0
2016-03-02T21:24:08.818Z,0
2016-03-02T21:25:21.743Z,0
2016-03-02T21:27:31.185Z,0
2016-03-02T21:28:31.204Z,0
2016-03-02T21:29:43.316Z,0
2016-03-02T21:30:31.162Z,0
2016-03-02T21:31:49.821Z,0
2016-03-02T21:32:30.636Z,0
2016-03-02T21:34:27.610Z,0
2016-03-02T21:35:05.848Z,0
2016-03-02T21:35:40.254Z,0
2016-03-02T21:37:42.821Z,0
2016-03-02T21:38:26.824Z,0
2016-03-02T21:38:55.387Z,0
2016-03-02T21:41:08.175Z,0
2016-03-02T21:41:55.441Z,0
2016-03-02T21:43:14.666Z,0
2016-03-02T21:44:24.215Z,0
2016-03-02T21:46:55.205Z,0
2016-03-02T21:47:33.005Z,0
2016-03-02T21:48:33.023Z,0
2016-03-02T21:49:33.010Z,0
2016-03-02T21:50:45.747Z,0
2016-03-02T21:51:33.063Z,0
2016-03-02T21:52:52.252Z,0
2016-03-02T21:54:01.803Z,0
2016-03-02T21:57:07.438Z,8
2016-03-02T21:57:20.094Z,12
2016-03-02T21:58:51.362Z,0
2016-03-02T21:59:21.505Z,0
2016-03-02T22:00:51.383Z,0
2016-03-02T22:01:29.668Z,0
2016-03-02T22:03:00.968Z,0
2016-03-02T22:03:35.938Z,0
2016-03-02T22:04:29.690Z,0
2016-03-02T22:05:42.491Z,0
2016-03-02T22:06:29.696Z,0
2016-03-02T22:07:29.745Z,0
2016-03-02T22:08:29.749Z,0
2016-03-02T22:09:29.736Z,0
2016-03-02T22:10:29.989Z,0
2016-03-02T22:11:29.773Z,0
2016-03-02T22:12:42.556Z,0
2016-03-02T22:13:29.809Z,0
2016-03-02T22:14:29.921Z,0
2016-03-02T22:15:29.845Z,0
2016-03-02T22:16:29.895Z,0
2016-03-02T22:17:29.883Z,0
2016-03-02T22:18:29.994Z,0
2016-03-02T22:19:29.903Z,0
2016-03-02T22:20:29.937Z,0
2016-03-02T22:21:29.940Z,0
2016-03-02T22:22:29.958Z,0
2016-03-02T22:23:29.977Z,0
2016-03-02T22:24:30.010Z,0
2016-03-02T22:25:30.013Z,0
2016-03-02T22:26:42.765Z,0
2016-03-02T22:27:30.081Z,0
2016-03-02T22:28:42.833Z,0
2016-03-02T22:29:30.071Z,0
2016-03-02T22:30:30.136Z,0
2016-03-02T22:31:42.810Z,0
2016-03-02T22:32:30.126Z,0
2016-03-02T22:33:43.097Z,0
2016-03-02T22:34:30.131Z,0
2016-03-02T22:35:30.149Z,0
2016-03-02T22:36:42.965Z,0
2016-03-02T22:37:30.202Z,0
2016-03-02T22:38:49.423Z,0
2016-03-02T22:39:30.192Z,0
2016-03-02T22:40:55.882Z,0
2016-03-02T22:41:36.603Z,0
2016-03-02T22:43:01.543Z,0
2016-03-02T22:43:42.968Z,0
2016-03-02T22:45:01.626Z,0
2016-03-02T22:45:36.615Z,0
2016-03-02T22:46:30.351Z,0
2016-03-02T22:47:49.494Z,0
2016-03-02T22:48:59.029Z,0
2016-03-02T22:52:33.477Z,0
2016-03-02T22:53:48.635Z,0
2016-03-02T22:54:43.092Z,0
2016-03-02T22:55:19.063Z,0
2016-03-02T22:57:20.053Z,0
2016-03-02T22:57:58.272Z,0
2016-03-02T22:58:33.805Z,0
2016-03-02T22:59:32.652Z,0
2016-03-02T23:00:32.654Z,0
2016-03-02T23:01:45.407Z,0
2016-03-02T23:02:32.722Z,0
2016-03-02T23:03:58.382Z,0
2016-03-02T23:04:42.259Z,0
2016-03-02T23:06:07.980Z,0
2016-03-02T23:06:42.296Z,0
2016-03-02T23:07:42.330Z,0
2016-03-02T23:08:42.441Z,0
2016-03-02T23:09:42.318Z,0
2016-03-02T23:10:42.354Z,0
2016-03-02T23:11:54.949Z,0
2016-03-02T23:12:42.499Z,0
2016-03-02T23:14:01.612Z,0
2016-03-02T23:14:42.442Z,0
2016-03-02T23:16:08.413Z,0
2016-03-02T23:16:42.509Z,0
2016-03-02T23:18:40.062Z,0
2016-03-02T23:18:52.625Z,0
2016-03-02T23:20:23.974Z,0
2016-03-02T23:20:52.646Z,0
2016-03-02T23:21:52.680Z,0
2016-03-02T23:22:52.698Z,0
2016-03-02T23:24:05.481Z,0
2016-03-02T23:24:59.094Z,0
2016-03-02T23:26:11.989Z,0
2016-03-02T23:26:53.333Z,0
2016-03-02T23:28:49.713Z,0
2016-03-02T23:32:50.505Z,0
2016-03-02T23:33:44.227Z,0
2016-03-02T23:34:59.402Z,0
2016-03-02T23:35:47.374Z,0
2016-03-02T23:36:28.126Z,0
2016-03-02T23:38:30.741Z,0
2016-03-02T23:39:14.604Z,0
2016-03-02T23:39:43.432Z,0
2016-03-02T23:41:56.077Z,0
2016-03-02T23:42:43.362Z,0
2016-03-02T23:44:02.614Z,0
2016-03-02T23:44:43.601Z,0
2016-03-02T23:46:40.387Z,0
2016-03-02T23:46:53.653Z,0
2016-03-02T23:48:56.190Z,0
2016-03-02T23:49:27.958Z,0
2016-03-02T23:50:08.786Z,0
2016-03-02T23:51:21.526Z,0
2016-03-02T23:52:15.092Z,0
2016-03-02T23:53:34.516Z,0
2016-03-02T23:54:21.581Z,0
2016-03-02T23:56:30.774Z,0
2016-03-02T23:57:01.789Z,0
2016-03-02T23:57:42.589Z,0
2016-03-02T23:59:08.294Z,0
2016-03-02T23:59:52.158Z,0
